sensor_id;sensor_type;location;lat;lon;timestamp;P1;durP1;ratioP1;P2;durP2;ratioP2
37647;SDS011;23490;53.656;10.076;2023-02-15T00:01:53;79.63;;;26.98;;
37647;SDS011;23490;53.656;10.076;2023-02-15T00:04:20;80.13;;;27.05;;
37647;SDS011;23490;53.656;10.076;2023-02-15T00:06:48;74.72;;;26.77;;
37647;SDS011;23490;53.656;10.076;2023-02-15T00:09:13;79.50;;;26.40;;
37647;SDS011;23490;53.656;10.076;2023-02-15T00:11:39;76.75;;;27.58;;
37647;SDS011;23490;53.656;10.076;2023-02-15T00:14:09;73.05;;;25.98;;
37647;SDS011;23490;53.656;10.076;2023-02-15T00:16:36;108.95;;;28.10;;
37647;SDS011;23490;53.656;10.076;2023-02-15T00:19:03;97.68;;;28.17;;
37647;SDS011;23490;53.656;10.076;2023-02-15T00:21:29;104.05;;;28.67;;
37647;SDS011;23490;53.656;10.076;2023-02-15T00:23:56;81.88;;;27.20;;
37647;SDS011;23490;53.656;10.076;2023-02-15T00:26:23;97.68;;;28.02;;
37647;SDS011;23490;53.656;10.076;2023-02-15T00:28:48;92.78;;;27.25;;
37647;SDS011;23490;53.656;10.076;2023-02-15T00:31:14;128.88;;;29.00;;
37647;SDS011;23490;53.656;10.076;2023-02-15T00:33:39;79.40;;;29.77;;
37647;SDS011;23490;53.656;10.076;2023-02-15T00:36:06;81.00;;;28.40;;
37647;SDS011;23490;53.656;10.076;2023-02-15T00:38:33;84.28;;;28.27;;
37647;SDS011;23490;53.656;10.076;2023-02-15T00:41:00;79.78;;;26.40;;
37647;SDS011;23490;53.656;10.076;2023-02-15T00:43:28;125.90;;;30.92;;
37647;SDS011;23490;53.656;10.076;2023-02-15T00:45:55;89.20;;;29.00;;
37647;SDS011;23490;53.656;10.076;2023-02-15T00:48:20;70.43;;;26.38;;
37647;SDS011;23490;53.656;10.076;2023-02-15T00:50:51;77.50;;;28.70;;
37647;SDS011;23490;53.656;10.076;2023-02-15T00:53:18;85.38;;;28.08;;
37647;SDS011;23490;53.656;10.076;2023-02-15T00:55:43;87.90;;;25.83;;
37647;SDS011;23490;53.656;10.076;2023-02-15T00:58:09;86.85;;;29.77;;
37647;SDS011;23490;53.656;10.076;2023-02-15T01:00:36;93.20;;;27.30;;
37647;SDS011;23490;53.656;10.076;2023-02-15T01:03:03;92.32;;;27.05;;
37647;SDS011;23490;53.656;10.076;2023-02-15T01:05:29;84.60;;;28.20;;
37647;SDS011;23490;53.656;10.076;2023-02-15T01:07:56;84.03;;;28.17;;
37647;SDS011;23490;53.656;10.076;2023-02-15T01:10:22;88.25;;;28.88;;
37647;SDS011;23490;53.656;10.076;2023-02-15T01:12:47;102.50;;;28.52;;
37647;SDS011;23490;53.656;10.076;2023-02-15T01:15:13;86.20;;;29.35;;
37647;SDS011;23490;53.656;10.076;2023-02-15T01:17:38;79.50;;;27.15;;
37647;SDS011;23490;53.656;10.076;2023-02-15T01:20:05;81.47;;;28.98;;
37647;SDS011;23490;53.656;10.076;2023-02-15T01:22:31;104.03;;;27.75;;
37647;SDS011;23490;53.656;10.076;2023-02-15T01:24:56;106.07;;;28.05;;
37647;SDS011;23490;53.656;10.076;2023-02-15T01:27:22;87.88;;;28.35;;
37647;SDS011;23490;53.656;10.076;2023-02-15T01:29:47;91.45;;;29.52;;
37647;SDS011;23490;53.656;10.076;2023-02-15T01:32:12;91.03;;;27.13;;
37647;SDS011;23490;53.656;10.076;2023-02-15T01:34:38;83.35;;;27.65;;
37647;SDS011;23490;53.656;10.076;2023-02-15T01:37:03;76.60;;;26.05;;
37647;SDS011;23490;53.656;10.076;2023-02-15T01:39:29;94.20;;;28.70;;
37647;SDS011;23490;53.656;10.076;2023-02-15T01:41:54;89.45;;;27.05;;
37647;SDS011;23490;53.656;10.076;2023-02-15T01:44:44;96.45;;;28.55;;
37647;SDS011;23490;53.656;10.076;2023-02-15T01:47:33;88.65;;;28.40;;
37647;SDS011;23490;53.656;10.076;2023-02-15T01:50:13;95.78;;;25.33;;
37647;SDS011;23490;53.656;10.076;2023-02-15T01:52:40;111.43;;;28.50;;
37647;SDS011;23490;53.656;10.076;2023-02-15T01:55:14;111.25;;;28.88;;
37647;SDS011;23490;53.656;10.076;2023-02-15T01:57:40;97.40;;;26.52;;
37647;SDS011;23490;53.656;10.076;2023-02-15T02:00:07;83.80;;;26.73;;
37647;SDS011;23490;53.656;10.076;2023-02-15T02:02:33;113.45;;;28.27;;
37647;SDS011;23490;53.656;10.076;2023-02-15T02:05:00;99.65;;;28.85;;
37647;SDS011;23490;53.656;10.076;2023-02-15T02:07:43;86.70;;;27.25;;
37647;SDS011;23490;53.656;10.076;2023-02-15T02:10:12;88.57;;;28.70;;
37647;SDS011;23490;53.656;10.076;2023-02-15T02:15:07;107.22;;;25.38;;
37647;SDS011;23490;53.656;10.076;2023-02-15T02:34:46;96.43;;;26.75;;
37647;SDS011;23490;53.656;10.076;2023-02-15T02:37:28;108.15;;;27.98;;
37647;SDS011;23490;53.656;10.076;2023-02-15T02:42:49;119.97;;;28.02;;
37647;SDS011;23490;53.656;10.076;2023-02-15T02:45:35;91.97;;;26.98;;
37647;SDS011;23490;53.656;10.076;2023-02-15T02:48:15;127.95;;;30.80;;
37647;SDS011;23490;53.656;10.076;2023-02-15T02:50:44;88.88;;;26.05;;
37647;SDS011;23490;53.656;10.076;2023-02-15T02:53:10;79.18;;;26.35;;
37647;SDS011;23490;53.656;10.076;2023-02-15T02:55:41;97.95;;;28.05;;
37647;SDS011;23490;53.656;10.076;2023-02-15T02:58:18;101.13;;;28.20;;
37647;SDS011;23490;53.656;10.076;2023-02-15T03:00:50;103.13;;;28.27;;
37647;SDS011;23490;53.656;10.076;2023-02-15T03:03:28;93.72;;;25.23;;
37647;SDS011;23490;53.656;10.076;2023-02-15T03:05:58;113.45;;;27.63;;
37647;SDS011;23490;53.656;10.076;2023-02-15T03:08:27;128.98;;;27.75;;
37647;SDS011;23490;53.656;10.076;2023-02-15T03:11:02;109.45;;;28.95;;
37647;SDS011;23490;53.656;10.076;2023-02-15T03:13:28;79.25;;;27.40;;
37647;SDS011;23490;53.656;10.076;2023-02-15T03:15:54;79.32;;;28.23;;
37647;SDS011;23490;53.656;10.076;2023-02-15T03:18:42;95.97;;;30.23;;
37647;SDS011;23490;53.656;10.076;2023-02-15T03:21:17;96.90;;;27.40;;
37647;SDS011;23490;53.656;10.076;2023-02-15T03:23:51;87.32;;;28.90;;
37647;SDS011;23490;53.656;10.076;2023-02-15T03:26:19;82.30;;;25.08;;
37647;SDS011;23490;53.656;10.076;2023-02-15T03:28:46;84.75;;;25.85;;
37647;SDS011;23490;53.656;10.076;2023-02-15T03:31:16;72.70;;;26.73;;
37647;SDS011;23490;53.656;10.076;2023-02-15T03:33:57;68.38;;;22.95;;
37647;SDS011;23490;53.656;10.076;2023-02-15T03:39:17;72.65;;;24.80;;
37647;SDS011;23490;53.656;10.076;2023-02-15T03:41:48;73.43;;;26.35;;
37647;SDS011;23490;53.656;10.076;2023-02-15T03:44:38;81.93;;;26.33;;
37647;SDS011;23490;53.656;10.076;2023-02-15T03:47:19;71.57;;;26.15;;
37647;SDS011;23490;53.656;10.076;2023-02-15T03:49:54;73.45;;;25.08;;
37647;SDS011;23490;53.656;10.076;2023-02-15T03:52:24;65.55;;;23.95;;
37647;SDS011;23490;53.656;10.076;2023-02-15T03:54:53;65.07;;;22.80;;
37647;SDS011;23490;53.656;10.076;2023-02-15T03:57:21;66.50;;;24.67;;
37647;SDS011;23490;53.656;10.076;2023-02-15T04:06:06;64.55;;;25.75;;
37647;SDS011;23490;53.656;10.076;2023-02-15T04:08:33;80.38;;;23.88;;
37647;SDS011;23490;53.656;10.076;2023-02-15T04:11:17;77.80;;;23.60;;
37647;SDS011;23490;53.656;10.076;2023-02-15T04:13:42;110.57;;;27.05;;
37647;SDS011;23490;53.656;10.076;2023-02-15T04:16:08;78.25;;;24.17;;
37647;SDS011;23490;53.656;10.076;2023-02-15T04:18:40;69.70;;;22.38;;
37647;SDS011;23490;53.656;10.076;2023-02-15T04:21:26;85.03;;;25.60;;
37647;SDS011;23490;53.656;10.076;2023-02-15T04:24:12;110.40;;;27.00;;
37647;SDS011;23490;53.656;10.076;2023-02-15T04:26:56;92.43;;;26.63;;
37647;SDS011;23490;53.656;10.076;2023-02-15T04:29:23;74.35;;;25.52;;
37647;SDS011;23490;53.656;10.076;2023-02-15T04:31:49;86.53;;;26.08;;
37647;SDS011;23490;53.656;10.076;2023-02-15T04:34:15;99.30;;;27.65;;
37647;SDS011;23490;53.656;10.076;2023-02-15T04:36:41;92.65;;;27.42;;
37647;SDS011;23490;53.656;10.076;2023-02-15T04:39:08;86.35;;;27.25;;
37647;SDS011;23490;53.656;10.076;2023-02-15T04:41:34;104.68;;;27.10;;
37647;SDS011;23490;53.656;10.076;2023-02-15T04:44:00;69.35;;;25.05;;
37647;SDS011;23490;53.656;10.076;2023-02-15T04:46:26;73.32;;;25.35;;
37647;SDS011;23490;53.656;10.076;2023-02-15T04:48:53;74.20;;;27.25;;
37647;SDS011;23490;53.656;10.076;2023-02-15T04:51:19;65.93;;;24.02;;
37647;SDS011;23490;53.656;10.076;2023-02-15T04:53:45;82.18;;;26.13;;
37647;SDS011;23490;53.656;10.076;2023-02-15T04:56:10;74.65;;;25.67;;
37647;SDS011;23490;53.656;10.076;2023-02-15T04:58:35;127.00;;;26.00;;
37647;SDS011;23490;53.656;10.076;2023-02-15T05:01:02;82.53;;;25.75;;
37647;SDS011;23490;53.656;10.076;2023-02-15T05:03:28;81.50;;;24.92;;
37647;SDS011;23490;53.656;10.076;2023-02-15T05:05:53;85.43;;;25.17;;
37647;SDS011;23490;53.656;10.076;2023-02-15T05:08:19;99.78;;;25.70;;
37647;SDS011;23490;53.656;10.076;2023-02-15T05:10:47;72.68;;;25.00;;
37647;SDS011;23490;53.656;10.076;2023-02-15T05:13:13;82.03;;;25.30;;
37647;SDS011;23490;53.656;10.076;2023-02-15T05:15:38;97.38;;;25.08;;
37647;SDS011;23490;53.656;10.076;2023-02-15T05:18:04;83.38;;;22.88;;
37647;SDS011;23490;53.656;10.076;2023-02-15T05:20:31;78.20;;;23.40;;
37647;SDS011;23490;53.656;10.076;2023-02-15T05:22:56;72.35;;;21.42;;
37647;SDS011;23490;53.656;10.076;2023-02-15T05:25:22;184.02;;;26.60;;
37647;SDS011;23490;53.656;10.076;2023-02-15T05:28:08;86.95;;;23.95;;
37647;SDS011;23490;53.656;10.076;2023-02-15T05:30:49;92.78;;;25.65;;
37647;SDS011;23490;53.656;10.076;2023-02-15T05:35:41;68.18;;;21.42;;
37647;SDS011;23490;53.656;10.076;2023-02-15T05:38:07;81.18;;;23.70;;
37647;SDS011;23490;53.656;10.076;2023-02-15T05:40:32;87.53;;;24.20;;
37647;SDS011;23490;53.656;10.076;2023-02-15T05:42:58;69.97;;;23.27;;
37647;SDS011;23490;53.656;10.076;2023-02-15T05:45:23;66.78;;;21.83;;
37647;SDS011;23490;53.656;10.076;2023-02-15T05:47:49;83.00;;;25.63;;
37647;SDS011;23490;53.656;10.076;2023-02-15T05:50:15;110.57;;;25.02;;
37647;SDS011;23490;53.656;10.076;2023-02-15T05:52:40;83.10;;;24.70;;
37647;SDS011;23490;53.656;10.076;2023-02-15T05:55:06;126.20;;;25.08;;
37647;SDS011;23490;53.656;10.076;2023-02-15T05:57:33;125.40;;;25.38;;
37647;SDS011;23490;53.656;10.076;2023-02-15T05:59:59;101.65;;;24.35;;
37647;SDS011;23490;53.656;10.076;2023-02-15T06:02:25;134.30;;;26.10;;
37647;SDS011;23490;53.656;10.076;2023-02-15T06:04:51;89.85;;;24.60;;
37647;SDS011;23490;53.656;10.076;2023-02-15T06:07:16;68.53;;;23.00;;
37647;SDS011;23490;53.656;10.076;2023-02-15T06:09:42;55.22;;;20.00;;
37647;SDS011;23490;53.656;10.076;2023-02-15T06:12:07;71.47;;;22.20;;
37647;SDS011;23490;53.656;10.076;2023-02-15T06:14:32;86.20;;;23.20;;
37647;SDS011;23490;53.656;10.076;2023-02-15T06:16:58;83.78;;;25.05;;
37647;SDS011;23490;53.656;10.076;2023-02-15T06:19:23;69.43;;;21.00;;
37647;SDS011;23490;53.656;10.076;2023-02-15T06:21:49;72.97;;;21.23;;
37647;SDS011;23490;53.656;10.076;2023-02-15T06:24:14;66.53;;;20.70;;
37647;SDS011;23490;53.656;10.076;2023-02-15T06:26:40;73.95;;;22.33;;
37647;SDS011;23490;53.656;10.076;2023-02-15T06:29:05;61.50;;;21.33;;
37647;SDS011;23490;53.656;10.076;2023-02-15T06:31:31;82.95;;;22.38;;
37647;SDS011;23490;53.656;10.076;2023-02-15T06:33:57;64.13;;;19.65;;
37647;SDS011;23490;53.656;10.076;2023-02-15T06:36:26;84.10;;;23.23;;
37647;SDS011;23490;53.656;10.076;2023-02-15T06:38:53;60.70;;;21.88;;
37647;SDS011;23490;53.656;10.076;2023-02-15T06:41:18;57.45;;;20.30;;
37647;SDS011;23490;53.656;10.076;2023-02-15T06:43:43;59.42;;;20.73;;
37647;SDS011;23490;53.656;10.076;2023-02-15T06:46:08;85.25;;;22.10;;
37647;SDS011;23490;53.656;10.076;2023-02-15T06:48:34;91.45;;;20.60;;
37647;SDS011;23490;53.656;10.076;2023-02-15T06:50:59;56.92;;;18.23;;
37647;SDS011;23490;53.656;10.076;2023-02-15T06:53:25;65.22;;;19.67;;
37647;SDS011;23490;53.656;10.076;2023-02-15T06:55:50;68.35;;;20.15;;
37647;SDS011;23490;53.656;10.076;2023-02-15T06:58:15;60.38;;;17.63;;
37647;SDS011;23490;53.656;10.076;2023-02-15T07:00:41;53.10;;;19.00;;
37647;SDS011;23490;53.656;10.076;2023-02-15T07:03:06;94.63;;;19.98;;
37647;SDS011;23490;53.656;10.076;2023-02-15T07:05:32;76.85;;;20.50;;
37647;SDS011;23490;53.656;10.076;2023-02-15T07:07:59;84.70;;;22.20;;
37647;SDS011;23490;53.656;10.076;2023-02-15T07:10:25;57.17;;;19.67;;
37647;SDS011;23490;53.656;10.076;2023-02-15T07:12:51;96.05;;;19.73;;
37647;SDS011;23490;53.656;10.076;2023-02-15T07:15:17;96.45;;;19.88;;
37647;SDS011;23490;53.656;10.076;2023-02-15T07:17:45;61.83;;;18.60;;
37647;SDS011;23490;53.656;10.076;2023-02-15T07:20:14;51.90;;;18.95;;
37647;SDS011;23490;53.656;10.076;2023-02-15T07:22:46;78.10;;;18.45;;
37647;SDS011;23490;53.656;10.076;2023-02-15T07:25:13;61.53;;;18.70;;
37647;SDS011;23490;53.656;10.076;2023-02-15T07:27:38;73.65;;;19.13;;
37647;SDS011;23490;53.656;10.076;2023-02-15T07:30:05;71.97;;;19.50;;
37647;SDS011;23490;53.656;10.076;2023-02-15T07:32:32;54.20;;;19.00;;
37647;SDS011;23490;53.656;10.076;2023-02-15T07:34:58;76.90;;;19.02;;
37647;SDS011;23490;53.656;10.076;2023-02-15T07:37:24;68.05;;;20.48;;
37647;SDS011;23490;53.656;10.076;2023-02-15T07:39:49;58.22;;;19.08;;
37647;SDS011;23490;53.656;10.076;2023-02-15T07:42:15;88.68;;;20.08;;
37647;SDS011;23490;53.656;10.076;2023-02-15T07:44:40;68.60;;;17.83;;
37647;SDS011;23490;53.656;10.076;2023-02-15T07:47:05;67.82;;;18.40;;
37647;SDS011;23490;53.656;10.076;2023-02-15T07:49:31;106.00;;;20.70;;
37647;SDS011;23490;53.656;10.076;2023-02-15T07:51:56;66.38;;;20.75;;
37647;SDS011;23490;53.656;10.076;2023-02-15T07:54:22;69.65;;;18.70;;
37647;SDS011;23490;53.656;10.076;2023-02-15T07:56:47;65.75;;;19.17;;
37647;SDS011;23490;53.656;10.076;2023-02-15T07:59:13;46.08;;;19.35;;
37647;SDS011;23490;53.656;10.076;2023-02-15T08:01:38;64.10;;;18.95;;
37647;SDS011;23490;53.656;10.076;2023-02-15T08:04:05;85.10;;;22.42;;
37647;SDS011;23490;53.656;10.076;2023-02-15T08:06:33;95.47;;;21.60;;
37647;SDS011;23490;53.656;10.076;2023-02-15T08:08:59;85.22;;;22.48;;
37647;SDS011;23490;53.656;10.076;2023-02-15T08:11:28;51.10;;;19.30;;
37647;SDS011;23490;53.656;10.076;2023-02-15T08:14:04;67.30;;;17.60;;
37647;SDS011;23490;53.656;10.076;2023-02-15T08:16:35;65.80;;;17.42;;
37647;SDS011;23490;53.656;10.076;2023-02-15T08:21:40;51.67;;;19.80;;
37647;SDS011;23490;53.656;10.076;2023-02-15T08:24:10;77.72;;;21.23;;
37647;SDS011;23490;53.656;10.076;2023-02-15T08:26:37;62.67;;;21.38;;
37647;SDS011;23490;53.656;10.076;2023-02-15T08:29:04;65.90;;;20.52;;
37647;SDS011;23490;53.656;10.076;2023-02-15T08:31:31;63.75;;;20.52;;
37647;SDS011;23490;53.656;10.076;2023-02-15T08:33:58;96.93;;;19.38;;
37647;SDS011;23490;53.656;10.076;2023-02-15T08:36:26;90.45;;;21.35;;
37647;SDS011;23490;53.656;10.076;2023-02-15T08:38:54;89.03;;;19.83;;
37647;SDS011;23490;53.656;10.076;2023-02-15T08:41:24;65.88;;;20.00;;
37647;SDS011;23490;53.656;10.076;2023-02-15T08:43:52;70.90;;;19.92;;
37647;SDS011;23490;53.656;10.076;2023-02-15T08:46:19;65.22;;;18.77;;
37647;SDS011;23490;53.656;10.076;2023-02-15T08:48:46;59.67;;;18.55;;
37647;SDS011;23490;53.656;10.076;2023-02-15T08:51:13;96.78;;;19.38;;
37647;SDS011;23490;53.656;10.076;2023-02-15T08:53:41;117.47;;;21.13;;
37647;SDS011;23490;53.656;10.076;2023-02-15T08:56:08;65.82;;;18.73;;
37647;SDS011;23490;53.656;10.076;2023-02-15T08:58:34;48.80;;;17.05;;
37647;SDS011;23490;53.656;10.076;2023-02-15T09:01:00;56.05;;;17.98;;
37647;SDS011;23490;53.656;10.076;2023-02-15T09:03:29;56.70;;;17.67;;
37647;SDS011;23490;53.656;10.076;2023-02-15T09:05:58;51.42;;;17.17;;
37647;SDS011;23490;53.656;10.076;2023-02-15T09:08:24;47.55;;;17.50;;
37647;SDS011;23490;53.656;10.076;2023-02-15T09:10:50;59.20;;;19.20;;
37647;SDS011;23490;53.656;10.076;2023-02-15T09:13:16;51.40;;;18.00;;
37647;SDS011;23490;53.656;10.076;2023-02-15T09:15:41;41.75;;;18.67;;
37647;SDS011;23490;53.656;10.076;2023-02-15T09:18:07;61.25;;;18.15;;
37647;SDS011;23490;53.656;10.076;2023-02-15T09:20:36;56.05;;;18.95;;
37647;SDS011;23490;53.656;10.076;2023-02-15T09:23:01;88.35;;;20.42;;
37647;SDS011;23490;53.656;10.076;2023-02-15T09:25:27;49.67;;;17.88;;
37647;SDS011;23490;53.656;10.076;2023-02-15T09:27:53;69.78;;;19.73;;
37647;SDS011;23490;53.656;10.076;2023-02-15T09:30:18;52.65;;;20.15;;
37647;SDS011;23490;53.656;10.076;2023-02-15T09:32:43;44.35;;;18.20;;
37647;SDS011;23490;53.656;10.076;2023-02-15T09:35:11;55.53;;;19.92;;
37647;SDS011;23490;53.656;10.076;2023-02-15T09:37:37;59.50;;;18.88;;
37647;SDS011;23490;53.656;10.076;2023-02-15T09:40:03;46.30;;;17.88;;
37647;SDS011;23490;53.656;10.076;2023-02-15T09:42:36;76.18;;;19.45;;
37647;SDS011;23490;53.656;10.076;2023-02-15T09:56:00;64.68;;;18.98;;
37647;SDS011;23490;53.656;10.076;2023-02-15T10:06:55;46.92;;;18.25;;
37647;SDS011;23490;53.656;10.076;2023-02-15T10:12:32;41.03;;;18.98;;
37647;SDS011;23490;53.656;10.076;2023-02-15T10:15:19;47.13;;;18.05;;
37647;SDS011;23490;53.656;10.076;2023-02-15T10:20:56;34.58;;;16.77;;
37647;SDS011;23490;53.656;10.076;2023-02-15T10:23:35;51.53;;;18.33;;
37647;SDS011;23490;53.656;10.076;2023-02-15T10:28:53;41.00;;;19.58;;
37647;SDS011;23490;53.656;10.076;2023-02-15T10:31:27;44.80;;;19.00;;
37647;SDS011;23490;53.656;10.076;2023-02-15T10:34:17;39.30;;;17.63;;
37647;SDS011;23490;53.656;10.076;2023-02-15T10:36:52;52.53;;;21.08;;
37647;SDS011;23490;53.656;10.076;2023-02-15T10:47:55;42.92;;;20.10;;
37647;SDS011;23490;53.656;10.076;2023-02-15T10:56:11;50.50;;;21.73;;
37647;SDS011;23490;53.656;10.076;2023-02-15T11:01:54;46.88;;;21.65;;
37647;SDS011;23490;53.656;10.076;2023-02-15T11:04:35;68.20;;;23.70;;
37647;SDS011;23490;53.656;10.076;2023-02-15T11:07:14;51.10;;;21.73;;
37647;SDS011;23490;53.656;10.076;2023-02-15T11:09:51;53.50;;;22.35;;
37647;SDS011;23490;53.656;10.076;2023-02-15T11:12:26;54.70;;;23.85;;
37647;SDS011;23490;53.656;10.076;2023-02-15T11:15:38;55.58;;;23.63;;
37647;SDS011;23490;53.656;10.076;2023-02-15T11:17:58;58.83;;;24.02;;
37647;SDS011;23490;53.656;10.076;2023-02-15T11:20:35;58.58;;;22.52;;
37647;SDS011;23490;53.656;10.076;2023-02-15T11:23:07;55.33;;;24.33;;
37647;SDS011;23490;53.656;10.076;2023-02-15T11:25:47;57.17;;;23.40;;
37647;SDS011;23490;53.656;10.076;2023-02-15T11:28:33;49.97;;;23.02;;
37647;SDS011;23490;53.656;10.076;2023-02-15T11:31:12;51.75;;;22.38;;
37647;SDS011;23490;53.656;10.076;2023-02-15T11:33:43;57.40;;;25.00;;
37647;SDS011;23490;53.656;10.076;2023-02-15T11:36:33;59.97;;;24.00;;
37647;SDS011;23490;53.656;10.076;2023-02-15T11:39:04;54.10;;;25.38;;
37647;SDS011;23490;53.656;10.076;2023-02-15T11:41:37;60.30;;;25.48;;
37647;SDS011;23490;53.656;10.076;2023-02-15T11:44:16;61.28;;;27.45;;
37647;SDS011;23490;53.656;10.076;2023-02-15T11:46:57;58.67;;;26.27;;
37647;SDS011;23490;53.656;10.076;2023-02-15T11:51:52;62.58;;;26.85;;
37647;SDS011;23490;53.656;10.076;2023-02-15T11:54:21;56.80;;;26.58;;
37647;SDS011;23490;53.656;10.076;2023-02-15T11:56:56;56.42;;;26.75;;
37647;SDS011;23490;53.656;10.076;2023-02-15T11:59:29;55.58;;;25.25;;
37647;SDS011;23490;53.656;10.076;2023-02-15T12:02:00;57.90;;;26.25;;
37647;SDS011;23490;53.656;10.076;2023-02-15T12:04:36;57.45;;;26.77;;
37647;SDS011;23490;53.656;10.076;2023-02-15T12:07:23;57.40;;;26.15;;
37647;SDS011;23490;53.656;10.076;2023-02-15T12:10:03;59.38;;;27.90;;
37647;SDS011;23490;53.656;10.076;2023-02-15T12:12:35;56.08;;;26.75;;
37647;SDS011;23490;53.656;10.076;2023-02-15T12:15:02;55.63;;;26.90;;
37647;SDS011;23490;53.656;10.076;2023-02-15T12:17:31;56.10;;;26.83;;
37647;SDS011;23490;53.656;10.076;2023-02-15T12:20:04;52.47;;;24.97;;
37647;SDS011;23490;53.656;10.076;2023-02-15T12:22:49;50.90;;;24.98;;
37647;SDS011;23490;53.656;10.076;2023-02-15T12:25:29;52.78;;;25.33;;
37647;SDS011;23490;53.656;10.076;2023-02-15T12:28:00;48.40;;;25.40;;
37647;SDS011;23490;53.656;10.076;2023-02-15T12:30:36;49.75;;;25.08;;
37647;SDS011;23490;53.656;10.076;2023-02-15T12:35:38;45.53;;;25.15;;
37647;SDS011;23490;53.656;10.076;2023-02-15T12:40:35;47.80;;;24.38;;
37647;SDS011;23490;53.656;10.076;2023-02-15T12:43:02;49.20;;;24.77;;
37647;SDS011;23490;53.656;10.076;2023-02-15T12:45:34;44.50;;;24.42;;
37647;SDS011;23490;53.656;10.076;2023-02-15T12:48:18;47.22;;;24.55;;
37647;SDS011;23490;53.656;10.076;2023-02-15T12:50:45;45.35;;;23.92;;
37647;SDS011;23490;53.656;10.076;2023-02-15T12:53:14;44.67;;;25.15;;
37647;SDS011;23490;53.656;10.076;2023-02-15T12:55:58;49.85;;;24.63;;
37647;SDS011;23490;53.656;10.076;2023-02-15T12:58:35;49.03;;;26.33;;
37647;SDS011;23490;53.656;10.076;2023-02-15T13:01:09;45.88;;;24.02;;
37647;SDS011;23490;53.656;10.076;2023-02-15T13:03:58;48.08;;;25.67;;
37647;SDS011;23490;53.656;10.076;2023-02-15T13:06:25;49.38;;;25.45;;
37647;SDS011;23490;53.656;10.076;2023-02-15T13:11:26;47.08;;;24.15;;
37647;SDS011;23490;53.656;10.076;2023-02-15T13:14:00;47.20;;;24.35;;
37647;SDS011;23490;53.656;10.076;2023-02-15T13:16:41;47.58;;;24.95;;
37647;SDS011;23490;53.656;10.076;2023-02-15T13:19:13;48.05;;;24.95;;
37647;SDS011;23490;53.656;10.076;2023-02-15T13:21:43;48.05;;;24.15;;
37647;SDS011;23490;53.656;10.076;2023-02-15T13:24:27;47.70;;;24.93;;
37647;SDS011;23490;53.656;10.076;2023-02-15T13:26:58;57.05;;;26.50;;
37647;SDS011;23490;53.656;10.076;2023-02-15T13:29:25;49.22;;;25.83;;
37647;SDS011;23490;53.656;10.076;2023-02-15T13:31:54;51.55;;;25.40;;
37647;SDS011;23490;53.656;10.076;2023-02-15T13:37:04;46.65;;;24.50;;
37647;SDS011;23490;53.656;10.076;2023-02-15T13:39:40;47.30;;;24.65;;
37647;SDS011;23490;53.656;10.076;2023-02-15T13:56:02;46.78;;;24.63;;
37647;SDS011;23490;53.656;10.076;2023-02-15T13:58:57;49.78;;;24.48;;
37647;SDS011;23490;53.656;10.076;2023-02-15T14:07:33;43.05;;;24.17;;
37647;SDS011;23490;53.656;10.076;2023-02-15T14:10:26;43.08;;;24.63;;
37647;SDS011;23490;53.656;10.076;2023-02-15T14:15:47;44.67;;;23.20;;
37647;SDS011;23490;53.656;10.076;2023-02-15T14:18:34;42.20;;;23.45;;
37647;SDS011;23490;53.656;10.076;2023-02-15T14:26:23;47.00;;;23.23;;
37647;SDS011;23490;53.656;10.076;2023-02-15T14:31:41;45.33;;;23.85;;
37647;SDS011;23490;53.656;10.076;2023-02-15T14:34:18;44.88;;;24.15;;
37647;SDS011;23490;53.656;10.076;2023-02-15T14:36:48;41.42;;;23.80;;
37647;SDS011;23490;53.656;10.076;2023-02-15T14:39:25;44.65;;;23.52;;
37647;SDS011;23490;53.656;10.076;2023-02-15T14:42:23;43.95;;;23.80;;
37647;SDS011;23490;53.656;10.076;2023-02-15T14:45:03;46.70;;;25.08;;
37647;SDS011;23490;53.656;10.076;2023-02-15T14:47:42;40.65;;;23.65;;
37647;SDS011;23490;53.656;10.076;2023-02-15T14:56:04;47.45;;;23.83;;
37647;SDS011;23490;53.656;10.076;2023-02-15T14:58:54;48.13;;;25.88;;
37647;SDS011;23490;53.656;10.076;2023-02-15T15:01:33;44.55;;;23.77;;
37647;SDS011;23490;53.656;10.076;2023-02-15T15:04:05;46.05;;;23.63;;
37647;SDS011;23490;53.656;10.076;2023-02-15T15:06:34;42.40;;;23.58;;
37647;SDS011;23490;53.656;10.076;2023-02-15T15:09:35;45.08;;;24.55;;
37647;SDS011;23490;53.656;10.076;2023-02-15T15:11:55;43.97;;;24.15;;
37647;SDS011;23490;53.656;10.076;2023-02-15T15:14:42;44.20;;;24.23;;
37647;SDS011;23490;53.656;10.076;2023-02-15T15:17:12;44.50;;;24.52;;
37647;SDS011;23490;53.656;10.076;2023-02-15T15:22:24;42.63;;;22.35;;
37647;SDS011;23490;53.656;10.076;2023-02-15T15:24:54;45.35;;;23.73;;
37647;SDS011;23490;53.656;10.076;2023-02-15T15:43:42;41.22;;;20.38;;
37647;SDS011;23490;53.656;10.076;2023-02-15T15:49:28;37.88;;;19.27;;
37647;SDS011;23490;53.656;10.076;2023-02-15T15:51:55;33.35;;;18.35;;
37647;SDS011;23490;53.656;10.076;2023-02-15T15:54:34;35.30;;;18.42;;
37647;SDS011;23490;53.656;10.076;2023-02-15T15:57:05;33.75;;;17.67;;
37647;SDS011;23490;53.656;10.076;2023-02-15T15:59:43;34.40;;;17.63;;
37647;SDS011;23490;53.656;10.076;2023-02-15T16:02:11;34.67;;;18.15;;
37647;SDS011;23490;53.656;10.076;2023-02-15T16:04:41;34.25;;;18.45;;
37647;SDS011;23490;53.656;10.076;2023-02-15T16:09:41;30.70;;;17.80;;
37647;SDS011;23490;53.656;10.076;2023-02-15T16:12:22;31.80;;;17.60;;
37647;SDS011;23490;53.656;10.076;2023-02-15T16:14:48;38.33;;;18.83;;
37647;SDS011;23490;53.656;10.076;2023-02-15T16:17:20;32.80;;;18.65;;
37647;SDS011;23490;53.656;10.076;2023-02-15T16:19:49;36.38;;;19.10;;
37647;SDS011;23490;53.656;10.076;2023-02-15T16:22:18;34.03;;;18.77;;
37647;SDS011;23490;53.656;10.076;2023-02-15T16:27:43;38.85;;;19.60;;
37647;SDS011;23490;53.656;10.076;2023-02-15T16:33:03;33.42;;;19.10;;
37647;SDS011;23490;53.656;10.076;2023-02-15T16:35:37;39.42;;;19.08;;
37647;SDS011;23490;53.656;10.076;2023-02-15T16:38:04;35.10;;;17.83;;
37647;SDS011;23490;53.656;10.076;2023-02-15T16:43:04;37.75;;;20.00;;
37647;SDS011;23490;53.656;10.076;2023-02-15T16:45:35;36.65;;;18.90;;
37647;SDS011;23490;53.656;10.076;2023-02-15T16:48:05;33.97;;;19.35;;
37647;SDS011;23490;53.656;10.076;2023-02-15T16:50:38;36.60;;;20.27;;
37647;SDS011;23490;53.656;10.076;2023-02-15T16:53:05;35.90;;;19.27;;
37647;SDS011;23490;53.656;10.076;2023-02-15T16:55:39;35.15;;;18.75;;
37647;SDS011;23490;53.656;10.076;2023-02-15T16:58:06;38.88;;;18.92;;
37647;SDS011;23490;53.656;10.076;2023-02-15T17:00:37;37.85;;;20.02;;
37647;SDS011;23490;53.656;10.076;2023-02-15T17:05:49;34.60;;;19.88;;
37647;SDS011;23490;53.656;10.076;2023-02-15T17:08:24;37.20;;;18.85;;
37647;SDS011;23490;53.656;10.076;2023-02-15T17:13:37;39.20;;;20.05;;
37647;SDS011;23490;53.656;10.076;2023-02-15T17:18:29;33.45;;;18.13;;
37647;SDS011;23490;53.656;10.076;2023-02-15T17:21:01;37.05;;;19.60;;